Elizabeth City, North Carolina
Current Conditions -  °F | °C
As of 12:54 PM on Sunday 21 Dec 2014 (Local Time) from KECG Reporting Station
Clear Clear  
Wind Chill: 50°   Ceiling: Unl
Heat Index: 50°   Visibility: 10mi
Dew Point: 33°   Wind: 9mph
Humidity: 52%   Direction: 30°NNE
Pressure: 30.29"   Gusts: NA
Location:  36.3°N, 76.22°W
Report Text: KECG 211754Z 03008KT 10SM CLR 10/01 A3029 RMK AO2 SLP258 T01000006 10100 20028 58019
Loading
Personal Weather Stations






























Interactive Weather Map New forecast layout! Learn more

10-Day Weather Forecast

Advertisements
Track Severe Weather on mobile